Time;durP1;ratioP1;P1;durP2;ratioP2;P2;SDS_P1;SDS_P2;PMS_P1;PMS_P2;Temp;Humidity;BMP_temperature;BMP_pressure;BME280_temperature;BME280_humidity;BME280_pressure;Samples;Min_cycle;Max_cycle;Signal;HPM_P1;HPM_P2
2023/09/09 00:02:06;;;;;;;16.75;15.05;;;;;;;;;;5009200;28;20287;-75
2023/09/09 00:04:32;;;;;;;17.25;15.55;;;;;;;;;;5029763;28;20199;-75
2023/09/09 00:07:02;;;;;;;15.95;14.55;;;;;;;;;;5014471;28;20195;-75
2023/09/09 00:09:29;;;;;;;17.40;15.63;;;;;;;;;;5016590;28;20195;-75
2023/09/09 00:11:55;;;;;;;16.38;14.88;;;;;;;;;;5023364;28;20181;-75
2023/09/09 00:14:21;;;;;;;16.42;15.02;;;;;;;;;;5022075;28;20213;-75
2023/09/09 00:16:47;;;;;;;16.05;14.68;;;;;;;;;;5031809;28;20192;-76
2023/09/09 00:19:13;;;;;;;17.13;14.90;;;;;;;;;;5019981;28;20243;-75
2023/09/09 00:21:39;;;;;;;16.02;14.63;;;;;;;;;;5022263;28;20279;-75
2023/09/09 00:24:05;;;;;;;15.70;14.13;;;;;;;;;;5033810;28;20181;-75
2023/09/09 00:26:31;;;;;;;14.85;13.45;;;;;;;;;;5017660;28;20188;-75
2023/09/09 00:29:00;;;;;;;16.15;14.70;;;;;;;;;;5025580;28;20215;-74
2023/09/09 00:31:26;;;;;;;17.23;15.45;;;;;;;;;;5045203;28;20227;-75
2023/09/09 00:33:53;;;;;;;16.55;14.93;;;;;;;;;;5020383;28;20239;-75
2023/09/09 00:36:19;;;;;;;17.08;15.35;;;;;;;;;;5048326;28;20188;-78
2023/09/09 00:38:45;;;;;;;16.65;15.18;;;;;;;;;;5035960;28;20196;-78
2023/09/09 00:41:13;;;;;;;15.77;14.35;;;;;;;;;;5035308;28;20191;-77
2023/09/09 00:43:39;;;;;;;15.73;14.40;;;;;;;;;;5050448;28;20207;-77
2023/09/09 00:46:06;;;;;;;16.02;14.38;;;;;;;;;;5055691;28;20266;-77
2023/09/09 00:48:32;;;;;;;16.60;15.00;;;;;;;;;;5042823;28;20189;-77
2023/09/09 00:50:59;;;;;;;16.13;14.57;;;;;;;;;;5045544;28;20245;-80
2023/09/09 00:53:25;;;;;;;16.80;15.27;;;;;;;;;;5049544;28;20234;-80
2023/09/09 00:55:51;;;;;;;16.53;14.93;;;;;;;;;;5037669;28;20188;-80
2023/09/09 00:58:17;;;;;;;15.90;14.43;;;;;;;;;;5041874;28;20184;-80
2023/09/09 01:00:43;;;;;;;16.73;14.90;;;;;;;;;;5032041;28;20199;-80
2023/09/09 01:03:09;;;;;;;16.17;14.57;;;;;;;;;;5029358;28;20196;-80
2023/09/09 01:05:36;;;;;;;16.17;14.67;;;;;;;;;;5036982;28;20185;-80
2023/09/09 01:08:02;;;;;;;15.50;14.27;;;;;;;;;;5014705;28;20196;-76
2023/09/09 01:10:28;;;;;;;16.03;14.63;;;;;;;;;;5051539;28;20176;-75
2023/09/09 01:12:54;;;;;;;16.25;14.85;;;;;;;;;;5042289;28;20245;-75
2023/09/09 01:15:20;;;;;;;16.73;15.10;;;;;;;;;;5035266;28;20177;-75
2023/09/09 01:17:48;;;;;;;16.10;14.40;;;;;;;;;;5016887;28;20239;-75
2023/09/09 01:20:15;;;;;;;15.60;14.10;;;;;;;;;;5043976;28;20295;-75
2023/09/09 01:22:48;;;;;;;15.77;14.40;;;;;;;;;;5027316;28;20189;-75
2023/09/09 01:25:14;;;;;;;16.20;14.70;;;;;;;;;;5034884;28;20243;-80
2023/09/09 01:27:40;;;;;;;16.67;15.27;;;;;;;;;;5035172;28;20173;-80
2023/09/09 01:30:08;;;;;;;16.87;15.37;;;;;;;;;;5033550;28;20250;-80
2023/09/09 01:32:34;;;;;;;16.23;14.83;;;;;;;;;;5015100;28;20186;-80
2023/09/09 01:35:00;;;;;;;16.73;15.00;;;;;;;;;;5034619;28;20219;-80
2023/09/09 01:37:25;;;;;;;17.20;15.57;;;;;;;;;;5033385;28;20177;-80
2023/09/09 01:39:51;;;;;;;16.63;15.07;;;;;;;;;;5018327;28;20188;-80
2023/09/09 01:42:17;;;;;;;16.50;15.00;;;;;;;;;;5018503;28;20177;-74
2023/09/09 01:44:47;;;;;;;16.67;14.93;;;;;;;;;;5036005;28;20258;-75
2023/09/09 01:47:13;;;;;;;17.33;15.63;;;;;;;;;;5018201;28;20191;-75
2023/09/09 01:49:40;;;;;;;16.57;15.07;;;;;;;;;;5017733;28;20288;-75
2023/09/09 01:52:06;;;;;;;16.60;15.20;;;;;;;;;;5017309;28;20339;-75
2023/09/09 01:54:32;;;;;;;17.33;15.83;;;;;;;;;;5034734;28;20286;-75
2023/09/09 01:56:58;;;;;;;17.13;15.43;;;;;;;;;;5018219;28;20207;-76
2023/09/09 01:59:24;;;;;;;17.27;15.67;;;;;;;;;;5017502;28;20273;-80
2023/09/09 02:01:51;;;;;;;16.97;15.40;;;;;;;;;;5018014;28;20188;-80
2023/09/09 02:04:17;;;;;;;17.17;15.67;;;;;;;;;;5035459;28;20243;-80
2023/09/09 02:06:44;;;;;;;16.73;14.93;;;;;;;;;;5034438;28;20181;-80
2023/09/09 02:09:10;;;;;;;16.27;14.83;;;;;;;;;;5034731;28;20212;-80
2023/09/09 02:11:36;;;;;;;17.13;15.40;;;;;;;;;;5034509;28;20184;-80
2023/09/09 02:14:02;;;;;;;17.03;15.37;;;;;;;;;;5000024;28;20213;-80
2023/09/09 02:16:28;;;;;;;16.57;15.17;;;;;;;;;;4998287;28;20181;-78
2023/09/09 02:18:54;;;;;;;16.83;15.33;;;;;;;;;;4994907;28;20178;-77
2023/09/09 02:21:20;;;;;;;15.67;14.27;;;;;;;;;;4993775;28;20236;-78
2023/09/09 02:23:46;;;;;;;16.20;14.77;;;;;;;;;;5007715;28;20254;-75
2023/09/09 02:26:12;;;;;;;16.87;15.23;;;;;;;;;;5035151;28;20200;-75
2023/09/09 02:28:38;;;;;;;17.17;15.50;;;;;;;;;;5017429;28;20192;-77
2023/09/09 02:31:04;;;;;;;17.03;15.53;;;;;;;;;;5034778;28;20189;-77
2023/09/09 02:33:30;;;;;;;16.77;15.20;;;;;;;;;;5017466;28;20208;-77
2023/09/09 02:36:00;;;;;;;16.53;15.10;;;;;;;;;;5017139;28;20177;-77
2023/09/09 02:38:26;;;;;;;16.97;15.53;;;;;;;;;;5030820;28;20279;-80
2023/09/09 02:40:52;;;;;;;15.73;14.43;;;;;;;;;;5000949;28;20190;-80
2023/09/09 02:43:18;;;;;;;16.80;15.40;;;;;;;;;;5017469;28;20191;-80
2023/09/09 02:45:44;;;;;;;16.77;15.17;;;;;;;;;;4997888;28;20177;-80
2023/09/09 02:48:10;;;;;;;16.53;15.00;;;;;;;;;;5051292;28;20176;-75
2023/09/09 02:50:36;;;;;;;16.40;15.00;;;;;;;;;;5014929;28;20326;-75
2023/09/09 02:53:02;;;;;;;17.40;15.60;;;;;;;;;;5033221;28;20191;-75
2023/09/09 02:55:28;;;;;;;16.40;15.00;;;;;;;;;;5016993;28;20184;-75
2023/09/09 02:57:54;;;;;;;16.80;15.20;;;;;;;;;;5033568;28;20187;-75
2023/09/09 03:00:21;;;;;;;17.13;15.57;;;;;;;;;;5016706;28;20181;-75
2023/09/09 03:02:49;;;;;;;15.33;14.03;;;;;;;;;;5034536;28;20168;-75
2023/09/09 03:05:16;;;;;;;16.50;15.00;;;;;;;;;;5028122;28;20229;-77
2023/09/09 03:07:43;;;;;;;16.43;14.83;;;;;;;;;;5016883;28;20173;-77
2023/09/09 03:10:10;;;;;;;16.43;14.73;;;;;;;;;;5033246;28;20173;-77
2023/09/09 03:12:35;;;;;;;17.20;15.50;;;;;;;;;;5033330;28;20182;-77
2023/09/09 03:15:05;;;;;;;17.87;16.07;;;;;;;;;;5016693;28;20264;-77
2023/09/09 03:17:31;;;;;;;17.13;15.47;;;;;;;;;;5016552;28;20255;-77
2023/09/09 03:19:57;;;;;;;16.90;15.30;;;;;;;;;;5033001;28;20172;-78
2023/09/09 03:22:23;;;;;;;17.67;15.77;;;;;;;;;;5013940;28;20192;-75
2023/09/09 03:24:50;;;;;;;16.10;14.80;;;;;;;;;;5015928;28;20192;-76
2023/09/09 03:27:16;;;;;;;16.43;14.90;;;;;;;;;;5016807;28;20240;-76
2023/09/09 03:29:42;;;;;;;16.77;15.17;;;;;;;;;;5000314;28;20189;-75
2023/09/09 03:32:08;;;;;;;16.87;15.17;;;;;;;;;;5016589;28;20181;-75
2023/09/09 03:34:34;;;;;;;15.77;14.47;;;;;;;;;;5031952;28;20220;-76
2023/09/09 03:37:00;;;;;;;15.73;14.33;;;;;;;;;;5032354;28;20186;-75
2023/09/09 03:39:27;;;;;;;16.50;14.97;;;;;;;;;;5016506;28;20173;-81
2023/09/09 03:41:53;;;;;;;16.20;14.60;;;;;;;;;;5033058;28;20176;-81
2023/09/09 03:44:19;;;;;;;15.57;14.13;;;;;;;;;;5016589;28;20224;-81
2023/09/09 03:46:45;;;;;;;15.70;14.30;;;;;;;;;;5012977;28;20192;-81
2023/09/09 03:49:11;;;;;;;16.07;14.67;;;;;;;;;;5014720;28;20185;-80
2023/09/09 03:51:37;;;;;;;16.57;14.93;;;;;;;;;;5014225;28;20181;-81
2023/09/09 03:54:03;;;;;;;16.60;15.03;;;;;;;;;;5018711;28;20219;-80
2023/09/09 03:56:29;;;;;;;16.20;14.70;;;;;;;;;;5032916;28;20319;-77
2023/09/09 03:58:57;;;;;;;16.20;14.77;;;;;;;;;;5016665;28;20200;-78
2023/09/09 04:01:23;;;;;;;16.23;14.83;;;;;;;;;;5033369;28;20242;-77
2023/09/09 04:03:49;;;;;;;17.13;15.63;;;;;;;;;;5032488;28;20220;-75
2023/09/09 04:06:17;;;;;;;16.30;14.90;;;;;;;;;;5055936;22;20233;-76
2023/09/09 04:08:43;;;;;;;16.27;14.83;;;;;;;;;;5000263;28;20254;-76
2023/09/09 04:11:09;;;;;;;18.73;15.40;;;;;;;;;;5027376;28;20184;-75
2023/09/09 04:13:38;;;;;;;16.70;15.30;;;;;;;;;;4991812;28;20217;-76
2023/09/09 04:16:04;;;;;;;15.57;14.17;;;;;;;;;;5015495;28;20192;-76
2023/09/09 04:18:30;;;;;;;17.07;15.27;;;;;;;;;;5016068;28;20174;-76
2023/09/09 04:20:56;;;;;;;16.10;14.70;;;;;;;;;;5044104;28;20294;-76
2023/09/09 04:23:22;;;;;;;15.93;14.43;;;;;;;;;;5019650;28;20282;-76
2023/09/09 04:25:48;;;;;;;15.87;14.47;;;;;;;;;;5000371;28;20287;-76
2023/09/09 04:28:14;;;;;;;15.77;14.37;;;;;;;;;;5020488;28;20241;-75
2023/09/09 04:30:41;;;;;;;16.33;14.87;;;;;;;;;;5011289;28;20189;-76
2023/09/09 04:33:26;;;;;;;16.47;14.90;;;;;;;;;;5015863;28;20187;-75
2023/09/09 04:35:52;;;;;;;17.47;15.00;;;;;;;;;;5033429;28;20223;-75
2023/09/09 04:38:19;;;;;;;16.57;14.97;;;;;;;;;;4999749;28;20180;-76
2023/09/09 04:40:45;;;;;;;17.00;15.50;;;;;;;;;;5013771;28;20189;-76
2023/09/09 04:43:11;;;;;;;16.80;15.17;;;;;;;;;;5004506;28;20185;-76
2023/09/09 04:45:37;;;;;;;17.07;15.33;;;;;;;;;;4999116;28;20240;-76
2023/09/09 04:48:05;;;;;;;17.47;15.87;;;;;;;;;;4999555;28;20193;-77
2023/09/09 04:50:31;;;;;;;17.63;15.93;;;;;;;;;;4996512;28;20189;-74
2023/09/09 04:52:57;;;;;;;17.73;16.13;;;;;;;;;;4998507;28;20185;-75
2023/09/09 04:55:23;;;;;;;17.37;15.57;;;;;;;;;;5004662;28;20199;-75
2023/09/09 04:57:49;;;;;;;17.27;15.67;;;;;;;;;;5035756;28;20177;-75
2023/09/09 05:00:15;;;;;;;18.77;16.77;;;;;;;;;;5025833;28;20196;-75
2023/09/09 05:02:41;;;;;;;17.93;16.43;;;;;;;;;;5015714;28;20174;-76
2023/09/09 05:05:07;;;;;;;17.93;16.33;;;;;;;;;;5026521;28;20196;-76
2023/09/09 05:07:34;;;;;;;18.43;16.53;;;;;;;;;;5019146;28;20236;-76
2023/09/09 05:10:01;;;;;;;17.57;15.97;;;;;;;;;;5013510;28;20185;-75
2023/09/09 05:12:27;;;;;;;17.13;15.63;;;;;;;;;;5023326;28;20187;-76
2023/09/09 05:14:53;;;;;;;17.00;15.33;;;;;;;;;;5002755;28;20220;-76
2023/09/09 05:17:19;;;;;;;19.17;17.37;;;;;;;;;;4998698;28;20185;-76
2023/09/09 05:19:45;;;;;;;19.83;17.80;;;;;;;;;;5017826;28;20249;-77
2023/09/09 05:22:11;;;;;;;18.70;17.00;;;;;;;;;;5036331;28;20177;-77
2023/09/09 05:24:37;;;;;;;19.67;17.73;;;;;;;;;;5002800;28;20235;-77
2023/09/09 05:27:03;;;;;;;20.10;18.33;;;;;;;;;;5019001;28;20180;-77
2023/09/09 05:29:29;;;;;;;20.30;18.40;;;;;;;;;;5002514;28;20234;-77
2023/09/09 05:31:55;;;;;;;19.43;17.67;;;;;;;;;;5018979;28;20191;-77
2023/09/09 05:34:21;;;;;;;20.50;18.70;;;;;;;;;;5013625;28;20312;-75
2023/09/09 05:36:47;;;;;;;20.77;18.93;;;;;;;;;;5008131;28;20197;-75
2023/09/09 05:39:13;;;;;;;21.13;18.63;;;;;;;;;;4998894;28;20283;-75
2023/09/09 05:41:39;;;;;;;20.50;18.53;;;;;;;;;;5006767;28;20323;-75
2023/09/09 05:44:05;;;;;;;22.23;20.13;;;;;;;;;;5002142;28;20219;-75
2023/09/09 05:46:31;;;;;;;22.10;20.10;;;;;;;;;;4995530;28;20189;-76
2023/09/09 05:48:57;;;;;;;22.03;19.83;;;;;;;;;;5001440;28;20195;-76
2023/09/09 05:51:23;;;;;;;21.57;19.50;;;;;;;;;;5018389;28;20187;-77
2023/09/09 05:53:51;;;;;;;21.03;19.13;;;;;;;;;;5002286;28;20209;-77
2023/09/09 05:56:17;;;;;;;21.97;19.97;;;;;;;;;;5035843;28;20184;-77
2023/09/09 05:58:43;;;;;;;23.00;20.63;;;;;;;;;;5001891;28;20180;-77
2023/09/09 06:01:09;;;;;;;22.00;20.10;;;;;;;;;;5018010;28;20179;-77
2023/09/09 06:03:35;;;;;;;23.23;21.03;;;;;;;;;;5017460;28;20204;-77
2023/09/09 06:06:02;;;;;;;23.13;20.83;;;;;;;;;;5018142;28;20187;-77
2023/09/09 06:08:28;;;;;;;22.37;20.20;;;;;;;;;;5035849;28;20314;-76
2023/09/09 06:10:54;;;;;;;24.37;22.07;;;;;;;;;;5018113;28;20180;-76
2023/09/09 06:13:20;;;;;;;25.37;23.13;;;;;;;;;;5001667;28;20208;-76
2023/09/09 06:15:46;;;;;;;26.97;24.43;;;;;;;;;;5001380;28;20284;-77
2023/09/09 06:18:12;;;;;;;24.23;21.37;;;;;;;;;;5035832;28;20181;-76
2023/09/09 06:20:38;;;;;;;49.63;45.03;;;;;;;;;;5016042;28;20200;-76
2023/09/09 06:23:04;;;;;;;58.47;52.40;;;;;;;;;;5023252;28;20192;-76
2023/09/09 06:25:32;;;;;;;56.17;50.47;;;;;;;;;;5001435;28;20189;-77
2023/09/09 06:27:58;;;;;;;61.37;55.07;;;;;;;;;;5024301;28;20197;-78
2023/09/09 06:30:24;;;;;;;59.10;53.30;;;;;;;;;;4998079;28;20177;-78
2023/09/09 06:32:50;;;;;;;55.43;49.60;;;;;;;;;;4998064;28;20181;-78
2023/09/09 06:35:16;;;;;;;56.53;51.17;;;;;;;;;;5008177;28;20208;-78
2023/09/09 06:37:42;;;;;;;60.37;54.17;;;;;;;;;;5045374;28;20357;-78
2023/09/09 06:40:08;;;;;;;68.43;61.43;;;;;;;;;;5015483;28;20366;-77
2023/09/09 06:42:34;;;;;;;68.80;61.90;;;;;;;;;;5001415;28;20192;-82
2023/09/09 06:45:00;;;;;;;74.90;67.33;;;;;;;;;;4999698;28;20184;-83
2023/09/09 06:47:26;;;;;;;81.87;73.30;;;;;;;;;;5004305;28;20188;-83
2023/09/09 06:49:52;;;;;;;85.57;76.57;;;;;;;;;;4997375;28;20190;-83
2023/09/09 06:52:18;;;;;;;91.63;82.03;;;;;;;;;;4997598;28;20236;-83
2023/09/09 06:54:44;;;;;;;95.40;85.30;;;;;;;;;;4997316;28;20216;-83
2023/09/09 06:57:10;;;;;;;96.60;86.50;;;;;;;;;;4997774;28;20185;-83
2023/09/09 06:59:37;;;;;;;104.80;91.53;;;;;;;;;;4998222;28;20271;-77
2023/09/09 07:02:03;;;;;;;106.90;95.20;;;;;;;;;;5014871;28;20188;-77
2023/09/09 07:04:29;;;;;;;109.40;97.50;;;;;;;;;;4997685;28;20307;-77
2023/09/09 07:06:55;;;;;;;105.13;93.93;;;;;;;;;;4997115;28;20225;-77
2023/09/09 07:09:21;;;;;;;106.67;95.07;;;;;;;;;;5014583;28;20182;-77
2023/09/09 07:11:47;;;;;;;94.80;85.13;;;;;;;;;;5014897;28;20181;-77
2023/09/09 07:14:13;;;;;;;95.90;86.17;;;;;;;;;;4997244;28;20211;-77
2023/09/09 07:16:39;;;;;;;98.23;88.30;;;;;;;;;;4997025;28;20189;-77
2023/09/09 07:19:05;;;;;;;92.40;83.40;;;;;;;;;;4997376;28;20185;-77
2023/09/09 07:21:31;;;;;;;88.60;79.60;;;;;;;;;;4996799;28;20181;-77
2023/09/09 07:23:57;;;;;;;90.33;81.27;;;;;;;;;;4996871;28;20181;-77
2023/09/09 07:26:23;;;;;;;78.87;71.07;;;;;;;;;;4996907;28;20208;-77
2023/09/09 07:28:49;;;;;;;95.13;85.40;;;;;;;;;;4997286;28;20181;-77
2023/09/09 07:31:15;;;;;;;93.63;84.10;;;;;;;;;;4997376;28;20240;-78
2023/09/09 07:33:41;;;;;;;86.23;77.83;;;;;;;;;;4996900;28;20212;-78
2023/09/09 07:36:07;;;;;;;86.47;77.57;;;;;;;;;;4996624;28;20181;-79
2023/09/09 07:38:33;;;;;;;81.33;72.73;;;;;;;;;;4996985;28;20177;-78
2023/09/09 07:41:01;;;;;;;79.70;71.73;;;;;;;;;;5014330;28;20181;-78
2023/09/09 07:43:27;;;;;;;82.03;73.77;;;;;;;;;;4997109;28;20186;-78
2023/09/09 07:45:55;;;;;;;83.43;75.03;;;;;;;;;;4996594;28;20235;-78
2023/09/09 07:48:21;;;;;;;81.90;73.47;;;;;;;;;;4997272;28;20181;-83
2023/09/09 07:50:54;;;;;;;71.83;64.47;;;;;;;;;;4997195;28;20209;-83
2023/09/09 07:53:20;;;;;;;76.60;68.97;;;;;;;;;;4996722;28;20218;-83
2023/09/09 07:55:48;;;;;;;70.77;63.77;;;;;;;;;;4996745;28;20181;-82
2023/09/09 07:58:14;;;;;;;68.73;61.73;;;;;;;;;;4996538;28;20177;-83
2023/09/09 08:00:41;;;;;;;65.93;59.53;;;;;;;;;;4997092;28;20243;-83
2023/09/09 08:03:07;;;;;;;63.27;57.20;;;;;;;;;;4996900;28;20182;-83
2023/09/09 08:05:33;;;;;;;64.30;58.07;;;;;;;;;;4997100;28;20185;-78
2023/09/09 08:07:59;;;;;;;73.35;66.57;;;;;;;;;;4995894;28;20431;-79
2023/09/09 08:10:25;;;;;;;76.60;69.47;;;;;;;;;;4995767;28;20453;-78
2023/09/09 08:12:51;;;;;;;87.72;79.43;;;;;;;;;;4995514;28;20415;-78
2023/09/09 08:15:17;;;;;;;85.75;77.15;;;;;;;;;;4996356;28;20256;-78
2023/09/09 08:17:43;;;;;;;85.50;76.35;;;;;;;;;;4996522;28;20177;-79
2023/09/09 08:20:10;;;;;;;89.17;79.53;;;;;;;;;;4996764;28;20177;-79
2023/09/09 08:22:36;;;;;;;89.00;79.67;;;;;;;;;;4997122;28;20188;-76
2023/09/09 08:25:02;;;;;;;84.63;75.47;;;;;;;;;;4996656;28;20228;-76
2023/09/09 08:27:28;;;;;;;83.70;75.00;;;;;;;;;;4997827;28;20182;-76
2023/09/09 08:29:56;;;;;;;86.35;77.30;;;;;;;;;;5017601;28;20181;-76
2023/09/09 08:32:22;;;;;;;80.50;72.07;;;;;;;;;;5000278;28;20198;-76
2023/09/09 08:34:51;;;;;;;78.53;70.13;;;;;;;;;;5000015;28;20212;-75
2023/09/09 08:37:17;;;;;;;80.90;72.50;;;;;;;;;;5017957;28;20286;-76
2023/09/09 08:39:42;;;;;;;75.78;67.65;;;;;;;;;;5000849;28;20177;-83
2023/09/09 08:42:31;;;;;;;78.07;69.57;;;;;;;;;;5011386;28;20185;-83
2023/09/09 08:45:07;;;;;;;81.22;72.32;;;;;;;;;;5007779;28;20272;-83
2023/09/09 08:47:35;;;;;;;67.43;60.45;;;;;;;;;;5034153;28;20169;-83
2023/09/09 08:50:03;;;;;;;71.63;64.00;;;;;;;;;;5036995;28;20230;-84
2023/09/09 08:52:29;;;;;;;67.00;59.75;;;;;;;;;;5036186;28;20272;-84
2023/09/09 08:54:56;;;;;;;62.47;55.80;;;;;;;;;;5003143;28;20231;-77
2023/09/09 08:57:23;;;;;;;63.20;56.38;;;;;;;;;;5035892;28;20173;-77
2023/09/09 08:59:49;;;;;;;68.30;61.15;;;;;;;;;;5019093;28;20176;-78
2023/09/09 09:02:15;;;;;;;65.80;58.72;;;;;;;;;;5033984;28;20188;-78
2023/09/09 09:04:42;;;;;;;58.22;52.30;;;;;;;;;;5020697;28;20186;-78
2023/09/09 09:07:09;;;;;;;57.97;52.03;;;;;;;;;;5015271;28;20243;-78
2023/09/09 09:09:35;;;;;;;62.63;56.03;;;;;;;;;;5025464;28;20196;-78
2023/09/09 09:12:03;;;;;;;61.63;55.20;;;;;;;;;;5002561;28;20264;-79
2023/09/09 09:14:29;;;;;;;65.38;58.65;;;;;;;;;;5019331;28;20238;-78
2023/09/09 09:16:55;;;;;;;52.90;47.58;;;;;;;;;;5017826;28;20256;-79
2023/09/09 09:19:28;;;;;;;54.30;48.47;;;;;;;;;;5039213;28;20172;-78
2023/09/09 09:21:55;;;;;;;54.40;48.90;;;;;;;;;;5039017;28;20176;-78
2023/09/09 09:24:25;;;;;;;42.30;37.92;;;;;;;;;;5037027;28;20180;-78
2023/09/09 09:26:51;;;;;;;46.30;41.70;;;;;;;;;;5018543;28;20258;-79
2023/09/09 09:29:17;;;;;;;53.17;47.83;;;;;;;;;;5019016;28;20176;-79
2023/09/09 09:31:50;;;;;;;40.92;37.05;;;;;;;;;;5016985;28;20319;-79
2023/09/09 09:34:18;;;;;;;37.88;33.97;;;;;;;;;;5033903;28;20265;-80
2023/09/09 09:36:44;;;;;;;34.22;30.88;;;;;;;;;;5000828;28;20228;-79
2023/09/09 09:39:11;;;;;;;33.20;29.90;;;;;;;;;;5018280;28;20204;-79
2023/09/09 09:41:40;;;;;;;36.08;32.67;;;;;;;;;;5001195;28;20181;-79
2023/09/09 09:44:17;;;;;;;30.88;27.95;;;;;;;;;;5001736;28;20239;-79
2023/09/09 09:46:43;;;;;;;32.58;29.50;;;;;;;;;;5035349;28;20200;-77
2023/09/09 09:49:09;;;;;;;32.45;29.35;;;;;;;;;;5001017;28;20235;-77
2023/09/09 09:51:44;;;;;;;29.40;26.55;;;;;;;;;;5001562;28;20184;-76
2023/09/09 09:54:17;;;;;;;26.90;24.30;;;;;;;;;;5001548;28;20204;-77
2023/09/09 09:56:45;;;;;;;27.27;24.75;;;;;;;;;;5017987;28;20207;-76
2023/09/09 09:59:11;;;;;;;21.30;19.20;;;;;;;;;;5017872;28;20177;-77
2023/09/09 10:01:37;;;;;;;18.88;16.85;;;;;;;;;;5001505;28;20180;-79
2023/09/09 10:04:06;;;;;;;24.02;21.73;;;;;;;;;;5035642;28;20177;-80
2023/09/09 10:06:34;;;;;;;25.23;22.70;;;;;;;;;;5047588;22;20227;-86
2023/09/09 10:09:11;;;;;;;21.27;19.38;;;;;;;;;;5037562;28;20283;-86
2023/09/09 10:11:41;;;;;;;19.92;17.90;;;;;;;;;;5037555;28;20172;-85
2023/09/09 10:14:07;;;;;;;19.05;17.27;;;;;;;;;;5037346;28;20377;-84
2023/09/09 10:16:34;;;;;;;18.00;16.35;;;;;;;;;;5037436;28;20890;-79
2023/09/09 10:19:02;;;;;;;18.10;16.40;;;;;;;;;;5020915;28;20179;-85
2023/09/09 10:21:28;;;;;;;20.23;18.20;;;;;;;;;;5037261;28;20180;-86
2023/09/09 10:23:55;;;;;;;18.52;16.55;;;;;;;;;;5037112;28;20234;-85
2023/09/09 10:26:22;;;;;;;18.15;16.50;;;;;;;;;;5020862;28;20176;-85
2023/09/09 10:28:49;;;;;;;19.20;16.70;;;;;;;;;;5037230;28;20266;-85
2023/09/09 10:31:15;;;;;;;16.15;14.55;;;;;;;;;;5037069;28;20207;-85
2023/09/09 10:33:45;;;;;;;19.83;17.83;;;;;;;;;;5036918;28;20192;-86
2023/09/09 10:36:13;;;;;;;18.55;16.65;;;;;;;;;;5044373;28;20183;-80
2023/09/09 10:38:39;;;;;;;17.50;16.00;;;;;;;;;;5056837;28;20167;-80
2023/09/09 10:41:05;;;;;;;18.35;16.83;;;;;;;;;;5040251;28;20176;-80
2023/09/09 10:43:31;;;;;;;15.68;14.18;;;;;;;;;;5049831;28;20176;-80
2023/09/09 10:45:57;;;;;;;15.82;14.25;;;;;;;;;;5020349;28;20184;-80
2023/09/09 10:48:24;;;;;;;15.00;13.70;;;;;;;;;;5028849;28;20233;-81
2023/09/09 10:50:51;;;;;;;17.00;15.30;;;;;;;;;;5039795;28;20251;-80
2023/09/09 10:53:19;;;;;;;17.10;15.45;;;;;;;;;;5056472;28;20182;-79
2023/09/09 10:55:46;;;;;;;15.55;14.20;;;;;;;;;;5056519;28;20285;-79
2023/09/09 10:58:15;;;;;;;14.50;13.20;;;;;;;;;;5056552;28;20241;-79
2023/09/09 11:00:41;;;;;;;13.85;12.45;;;;;;;;;;5074272;28;20186;-79
2023/09/09 11:03:15;;;;;;;14.10;12.82;;;;;;;;;;5056138;28;20167;-79
2023/09/09 11:06:00;;;;;;;15.60;14.00;;;;;;;;;;5054442;28;20199;-79
2023/09/09 11:08:35;;;;;;;18.10;15.77;;;;;;;;;;5022964;28;20255;-81
2023/09/09 11:11:11;;;;;;;13.85;12.65;;;;;;;;;;5034990;28;20218;-77
2023/09/09 11:13:49;;;;;;;14.88;13.55;;;;;;;;;;5032777;28;20203;-78
2023/09/09 11:16:25;;;;;;;15.32;13.88;;;;;;;;;;5026399;28;20221;-77
2023/09/09 11:18:52;;;;;;;13.73;12.52;;;;;;;;;;5018629;28;20192;-77
2023/09/09 11:21:22;;;;;;;14.55;11.32;;;;;;;;;;5009290;28;20481;-77
2023/09/09 11:23:49;;;;;;;11.48;10.48;;;;;;;;;;5033287;28;20180;-76
2023/09/09 11:26:16;;;;;;;11.43;10.20;;;;;;;;;;5013969;28;20228;-76
2023/09/09 11:28:45;;;;;;;13.18;11.98;;;;;;;;;;5025464;28;20180;-79
2023/09/09 11:31:11;;;;;;;10.68;9.70;;;;;;;;;;5021989;28;20185;-77
2023/09/09 11:33:38;;;;;;;9.77;8.77;;;;;;;;;;5011741;28;20203;-78
2023/09/09 11:36:04;;;;;;;10.93;8.63;;;;;;;;;;5012942;28;20189;-77
2023/09/09 11:38:40;;;;;;;9.20;8.30;;;;;;;;;;5001684;28;20188;-78
2023/09/09 11:41:06;;;;;;;9.40;8.60;;;;;;;;;;5036189;28;20197;-78
2023/09/09 11:43:32;;;;;;;7.93;7.22;;;;;;;;;;5019949;28;20268;-81
2023/09/09 11:45:58;;;;;;;9.63;8.75;;;;;;;;;;5016536;28;20219;-80
2023/09/09 11:48:25;;;;;;;9.23;8.38;;;;;;;;;;5003982;28;20184;-81
2023/09/09 11:50:51;;;;;;;9.77;7.78;;;;;;;;;;5029665;28;20180;-80
2023/09/09 11:53:20;;;;;;;7.85;7.07;;;;;;;;;;5030986;28;20188;-81
2023/09/09 11:55:51;;;;;;;9.20;7.07;;;;;;;;;;4999657;28;20262;-81
2023/09/09 11:58:18;;;;;;;10.23;7.80;;;;;;;;;;5016195;28;20223;-85
2023/09/09 12:00:44;;;;;;;8.98;8.18;;;;;;;;;;5003113;28;20179;-79
2023/09/09 12:03:10;;;;;;;8.75;7.90;;;;;;;;;;5010183;28;20181;-79
2023/09/09 12:05:36;;;;;;;8.63;7.82;;;;;;;;;;5004926;28;20268;-79
2023/09/09 12:08:03;;;;;;;12.88;7.47;;;;;;;;;;5034788;28;20287;-79
2023/09/09 12:10:31;;;;;;;8.77;7.93;;;;;;;;;;5023469;28;20176;-81
2023/09/09 12:12:57;;;;;;;10.77;8.35;;;;;;;;;;5039415;28;20206;-81
2023/09/09 12:15:24;;;;;;;9.15;8.05;;;;;;;;;;5022205;28;20229;-80
2023/09/09 12:17:50;;;;;;;9.43;8.52;;;;;;;;;;5039501;28;20172;-80
2023/09/09 12:20:16;;;;;;;9.32;8.13;;;;;;;;;;5039673;28;20172;-81
2023/09/09 12:22:47;;;;;;;8.88;8.07;;;;;;;;;;5039707;28;20174;-81
2023/09/09 12:25:29;;;;;;;8.70;7.75;;;;;;;;;;5023742;28;20267;-81
2023/09/09 12:27:55;;;;;;;13.02;8.63;;;;;;;;;;5031866;28;20185;-81
2023/09/09 12:30:37;;;;;;;8.52;7.70;;;;;;;;;;5024934;28;20188;-81
2023/09/09 12:33:04;;;;;;;6.60;5.97;;;;;;;;;;5029945;28;20191;-81
2023/09/09 12:35:33;;;;;;;7.35;5.18;;;;;;;;;;5013185;28;20215;-81
2023/09/09 12:37:59;;;;;;;9.43;5.05;;;;;;;;;;5046241;28;20176;-81
2023/09/09 12:40:25;;;;;;;5.75;5.22;;;;;;;;;;5033492;28;20181;-80
2023/09/09 12:42:54;;;;;;;6.40;4.85;;;;;;;;;;5040484;28;20187;-80
2023/09/09 12:45:23;;;;;;;5.53;4.88;;;;;;;;;;5077096;28;20213;-80
2023/09/09 12:47:51;;;;;;;5.47;4.97;;;;;;;;;;5054864;28;20287;-84
2023/09/09 12:50:17;;;;;;;16.85;8.23;;;;;;;;;;5052914;28;20190;-85
2023/09/09 12:52:44;;;;;;;6.13;5.25;;;;;;;;;;5003662;28;20268;-85
2023/09/09 12:55:10;;;;;;;5.47;5.07;;;;;;;;;;5035890;28;20204;-84
2023/09/09 12:57:36;;;;;;;5.97;5.38;;;;;;;;;;5002836;28;20210;-85
2023/09/09 13:00:04;;;;;;;6.22;5.30;;;;;;;;;;5035403;28;20169;-85
2023/09/09 13:02:30;;;;;;;6.05;4.95;;;;;;;;;;5002085;28;20255;-85
2023/09/09 13:04:56;;;;;;;5.25;4.68;;;;;;;;;;5019387;28;20266;-80
2023/09/09 13:07:22;;;;;;;5.95;5.35;;;;;;;;;;5035153;28;20264;-80
2023/09/09 13:09:48;;;;;;;5.93;5.30;;;;;;;;;;5018767;28;20185;-80
2023/09/09 13:12:14;;;;;;;6.53;5.13;;;;;;;;;;5047632;28;20188;-80
2023/09/09 13:14:40;;;;;;;6.60;5.78;;;;;;;;;;5038080;28;20203;-80
2023/09/09 13:17:06;;;;;;;7.10;5.40;;;;;;;;;;5021978;28;20242;-80
2023/09/09 13:19:32;;;;;;;6.85;5.80;;;;;;;;;;5038026;28;20212;-80
2023/09/09 13:21:58;;;;;;;8.82;7.05;;;;;;;;;;5020135;28;20243;-78
2023/09/09 13:24:24;;;;;;;6.72;6.13;;;;;;;;;;5022217;28;20283;-78
2023/09/09 13:26:50;;;;;;;7.28;6.68;;;;;;;;;;5038489;28;20200;-78
2023/09/09 13:29:16;;;;;;;6.45;5.90;;;;;;;;;;5055978;28;20179;-78
2023/09/09 13:31:42;;;;;;;7.47;6.32;;;;;;;;;;5022115;28;20203;-78
2023/09/09 13:34:08;;;;;;;7.05;6.20;;;;;;;;;;5021478;28;20211;-78
2023/09/09 13:36:34;;;;;;;7.65;6.80;;;;;;;;;;5021638;28;20211;-78
2023/09/09 13:39:00;;;;;;;7.43;6.68;;;;;;;;;;5038289;28;20174;-78
2023/09/09 13:41:28;;;;;;;7.22;5.80;;;;;;;;;;5021539;28;20230;-79
2023/09/09 13:43:54;;;;;;;7.68;6.35;;;;;;;;;;5055592;28;20156;-78
2023/09/09 13:46:21;;;;;;;7.60;6.80;;;;;;;;;;5037765;28;20180;-78
2023/09/09 13:48:47;;;;;;;7.00;6.07;;;;;;;;;;5021496;28;20183;-78
2023/09/09 13:51:13;;;;;;;8.40;5.75;;;;;;;;;;5037866;28;20172;-78
2023/09/09 13:53:39;;;;;;;8.02;6.43;;;;;;;;;;5021101;28;20215;-78
2023/09/09 13:56:05;;;;;;;6.97;6.28;;;;;;;;;;5021358;28;20179;-79
2023/09/09 13:58:31;;;;;;;7.18;6.47;;;;;;;;;;5021472;28;20270;-79
2023/09/09 14:00:57;;;;;;;8.05;6.60;;;;;;;;;;5037535;28;20267;-78
2023/09/09 14:03:23;;;;;;;11.07;6.35;;;;;;;;;;5021184;28;20168;-78
2023/09/09 14:05:49;;;;;;;7.32;6.10;;;;;;;;;;5021207;28;20184;-78
2023/09/09 14:08:15;;;;;;;8.70;7.78;;;;;;;;;;5020854;28;20274;-78
2023/09/09 14:10:41;;;;;;;7.68;6.97;;;;;;;;;;5037085;28;20176;-78
2023/09/09 14:13:07;;;;;;;8.38;7.20;;;;;;;;;;5020981;28;20168;-76
2023/09/09 14:15:33;;;;;;;8.20;6.43;;;;;;;;;;5037097;28;20218;-76
2023/09/09 14:17:59;;;;;;;8.85;6.65;;;;;;;;;;5054858;28;20194;-77
2023/09/09 14:20:26;;;;;;;8.00;6.25;;;;;;;;;;5020827;28;20176;-76